createdAt,value
2023-02-06T00:00:11.109Z,31.73
2023-02-06T00:02:14.176Z,26.55
2023-02-06T00:04:17.332Z,41.40
2023-02-06T00:06:20.445Z,40.60
2023-02-06T00:08:23.492Z,34.55
2023-02-06T00:10:26.621Z,32.90
2023-02-06T00:12:30.954Z,31.77
2023-02-06T00:14:33.942Z,27.08
2023-02-06T00:16:37.006Z,28.75
2023-02-06T00:18:39.967Z,28.02
2023-02-06T00:20:42.969Z,29.58
2023-02-06T00:22:45.937Z,28.15
2023-02-06T00:24:48.984Z,23.50
2023-02-06T00:26:51.941Z,25.92
2023-02-06T00:28:56.506Z,31.98
2023-02-06T00:31:00.913Z,28.50
2023-02-06T00:33:04.061Z,28.48
2023-02-06T00:35:07.721Z,27.30
2023-02-06T00:37:10.744Z,28.83
2023-02-06T00:39:13.644Z,25.52
2023-02-06T00:41:16.893Z,27.17
2023-02-06T00:43:19.851Z,26.73
2023-02-06T00:45:24.228Z,27.90
2023-02-06T00:47:27.192Z,26.55
2023-02-06T00:49:30.235Z,30.08
2023-02-06T00:51:33.191Z,32.22
2023-02-06T00:53:37.171Z,28.52
2023-02-06T00:55:40.124Z,27.52
2023-02-06T00:57:43.097Z,27.70
2023-02-06T00:59:46.020Z,25.27
2023-02-06T01:01:50.474Z,30.02
2023-02-06T01:03:53.518Z,28.60
2023-02-06T01:05:56.510Z,32.08
2023-02-06T01:07:59.530Z,27.63
2023-02-06T01:10:02.585Z,32.05
2023-02-06T01:12:06.325Z,27.25
2023-02-06T01:14:09.308Z,29.30
2023-02-06T01:16:14.539Z,36.25
2023-02-06T01:18:19.065Z,29.83
2023-02-06T01:20:23.820Z,31.92
2023-02-06T01:22:26.986Z,32.15
2023-02-06T01:24:30.172Z,36.08
2023-02-06T01:26:33.180Z,33.15
2023-02-06T01:28:36.911Z,33.13
2023-02-06T01:30:40.244Z,34.22
2023-02-06T01:32:43.466Z,40.53
2023-02-06T01:34:47.841Z,36.75
2023-02-06T01:36:50.763Z,31.95
2023-02-06T01:38:53.985Z,33.15
2023-02-06T01:40:57.651Z,32.40
2023-02-06T01:43:02.053Z,34.38
2023-02-06T01:45:37.236Z,34.25
2023-02-06T01:47:40.509Z,30.00
2023-02-06T01:49:45.625Z,31.17
2023-02-06T01:51:51.083Z,30.40
2023-02-06T01:53:56.329Z,34.05
2023-02-06T01:56:01.550Z,33.42
2023-02-06T01:58:05.849Z,36.28
2023-02-06T02:00:11.388Z,34.53
2023-02-06T02:02:17.486Z,32.97
2023-02-06T02:04:22.854Z,38.25
2023-02-06T02:06:27.504Z,34.05
2023-02-06T02:08:36.637Z,38.55
2023-02-06T02:10:39.926Z,40.65
2023-02-06T02:12:42.943Z,35.17
2023-02-06T02:14:47.354Z,33.50
2023-02-06T02:16:57.999Z,34.67
2023-02-06T02:19:17.536Z,35.08
2023-02-06T02:22:08.362Z,34.88
2023-02-06T02:24:15.081Z,33.78
2023-02-06T02:26:36.522Z,36.83
2023-02-06T02:29:13.897Z,35.25
2023-02-06T02:31:38.968Z,30.67
2023-02-06T02:34:08.033Z,35.42
2023-02-06T02:36:15.305Z,33.05
2023-02-06T02:38:31.302Z,35.83
2023-02-06T02:40:41.221Z,35.05
2023-02-06T02:42:49.064Z,36.55
2023-02-06T02:44:55.852Z,33.95
2023-02-06T02:47:03.149Z,35.53
2023-02-06T02:49:09.425Z,38.60
2023-02-06T02:51:14.535Z,41.65
2023-02-06T02:53:18.255Z,35.80
2023-02-06T02:55:23.525Z,44.15
2023-02-06T02:57:33.164Z,34.97
2023-02-06T02:59:38.215Z,42.40
2023-02-06T03:01:44.545Z,33.38
2023-02-06T03:03:49.602Z,36.55
2023-02-06T03:06:02.275Z,31.75
2023-02-06T03:08:14.274Z,32.25
2023-02-06T03:10:24.096Z,32.75
2023-02-06T03:12:35.542Z,32.28
2023-02-06T03:14:42.535Z,39.63
2023-02-06T03:16:49.013Z,35.13
2023-02-06T03:18:56.892Z,33.28
2023-02-06T03:21:01.038Z,34.97
2023-02-06T03:23:05.513Z,32.60
2023-02-06T03:25:13.477Z,33.28
2023-02-06T03:27:17.096Z,32.97
2023-02-06T03:29:20.288Z,30.10
2023-02-06T03:31:27.774Z,31.23
2023-02-06T03:33:33.728Z,35.90
2023-02-06T03:35:38.187Z,31.95
2023-02-06T03:37:41.383Z,33.78
2023-02-06T03:39:45.103Z,34.72
2023-02-06T03:41:50.225Z,33.80
2023-02-06T03:43:53.683Z,31.63
2023-02-06T03:46:00.167Z,29.98
2023-02-06T03:48:05.893Z,31.92
2023-02-06T03:50:10.658Z,31.65
2023-02-06T03:52:15.066Z,32.17
2023-02-06T03:54:19.886Z,32.55
2023-02-06T03:56:29.415Z,33.13
2023-02-06T03:58:34.247Z,32.13
2023-02-06T04:00:38.848Z,34.33
2023-02-06T04:02:42.166Z,35.33
2023-02-06T04:04:46.532Z,33.47
2023-02-06T04:06:49.464Z,34.50
2023-02-06T04:08:52.488Z,32.60
2023-02-06T04:10:55.457Z,30.65
2023-02-06T04:12:58.603Z,37.00
2023-02-06T04:15:02.951Z,31.60
2023-02-06T04:17:07.180Z,34.83
2023-02-06T04:19:10.169Z,33.05
2023-02-06T04:21:13.098Z,30.98
2023-02-06T04:23:16.159Z,31.45
2023-02-06T04:25:21.265Z,32.08
2023-02-06T04:27:24.490Z,32.67
2023-02-06T04:29:27.716Z,30.33
2023-02-06T04:31:32.481Z,33.08
2023-02-06T04:33:35.654Z,34.65
2023-02-06T04:35:38.683Z,32.95
2023-02-06T04:37:41.812Z,32.20
2023-02-06T04:39:44.796Z,29.55
2023-02-06T04:41:47.924Z,32.90
2023-02-06T04:43:50.905Z,30.23
2023-02-06T04:45:54.054Z,33.33
2023-02-06T04:47:59.601Z,30.55
2023-02-06T04:50:02.688Z,33.45
2023-02-06T04:52:06.153Z,31.65
2023-02-06T04:54:09.348Z,31.38
2023-02-06T04:56:13.744Z,31.42
2023-02-06T04:58:16.770Z,31.38
2023-02-06T05:00:19.895Z,32.70
2023-02-06T05:02:22.957Z,32.30
2023-02-06T05:04:28.505Z,33.72
2023-02-06T05:06:31.763Z,30.98
2023-02-06T05:08:34.746Z,31.38
2023-02-06T05:10:37.887Z,32.95
2023-02-06T05:12:40.804Z,31.80
2023-02-06T05:14:43.700Z,32.00
2023-02-06T05:16:46.584Z,31.08
2023-02-06T05:18:54.074Z,30.73
2023-02-06T05:20:58.397Z,32.70
2023-02-06T05:23:01.314Z,32.85
2023-02-06T05:25:04.418Z,34.17
2023-02-06T05:27:07.393Z,31.40
2023-02-06T05:29:10.402Z,34.20
2023-02-06T05:31:18.313Z,33.47
2023-02-06T05:33:21.499Z,33.65
2023-02-06T05:35:25.144Z,34.95
2023-02-06T05:37:29.584Z,33.30
2023-02-06T05:39:32.598Z,34.35
2023-02-06T05:41:35.778Z,37.10
2023-02-06T05:43:39.404Z,33.50
2023-02-06T05:45:42.378Z,32.53
2023-02-06T05:47:45.350Z,33.53
2023-02-06T05:49:48.768Z,31.38
2023-02-06T05:51:51.814Z,29.02
2023-02-06T05:53:56.249Z,35.63
2023-02-06T05:55:59.230Z,31.70
2023-02-06T05:58:02.185Z,30.52
2023-02-06T06:00:06.665Z,28.90
2023-02-06T06:02:14.810Z,27.77
2023-02-06T06:04:17.968Z,27.63
2023-02-06T06:06:21.000Z,31.92
2023-02-06T06:08:24.015Z,30.08
2023-02-06T06:10:28.619Z,40.58
2023-02-06T06:12:31.671Z,38.42
2023-02-06T06:14:34.751Z,27.50
2023-02-06T06:16:37.757Z,25.88
2023-02-06T06:18:40.691Z,23.92
2023-02-06T06:20:43.732Z,23.25
2023-02-06T06:22:46.723Z,20.60
2023-02-06T06:24:49.697Z,20.38
2023-02-06T06:26:54.239Z,19.75
2023-02-06T06:28:57.514Z,19.08
2023-02-06T06:31:04.497Z,18.10
2023-02-06T06:33:07.584Z,15.88
2023-02-06T06:35:10.535Z,14.45
2023-02-06T06:37:13.524Z,16.23
2023-02-06T06:39:16.472Z,19.08
2023-02-06T06:41:19.521Z,14.57
2023-02-06T06:43:23.937Z,19.98
2023-02-06T06:45:26.950Z,22.80
2023-02-06T06:47:29.991Z,20.20
2023-02-06T06:49:33.285Z,16.17
2023-02-06T06:51:36.268Z,19.20
2023-02-06T06:53:40.123Z,17.95
2023-02-06T06:55:43.462Z,18.52
2023-02-06T06:57:46.522Z,16.25
2023-02-06T06:59:50.958Z,19.10
2023-02-06T07:01:53.957Z,18.17
2023-02-06T07:03:57.013Z,15.63
2023-02-06T07:06:00.135Z,16.17
2023-02-06T07:08:03.208Z,19.00
2023-02-06T07:10:07.583Z,43.42
2023-02-06T07:12:10.732Z,23.35
2023-02-06T07:14:13.889Z,16.75
2023-02-06T07:16:18.515Z,17.90
2023-02-06T07:18:22.230Z,21.52
2023-02-06T07:20:25.270Z,31.05
2023-02-06T07:22:28.312Z,25.40
2023-02-06T07:24:31.465Z,17.13
2023-02-06T07:26:34.654Z,18.17
2023-02-06T07:28:37.735Z,19.20
2023-02-06T07:30:40.785Z,21.52
2023-02-06T07:32:45.148Z,19.38
2023-02-06T07:34:48.191Z,19.58
2023-02-06T07:36:51.402Z,15.10
2023-02-06T07:38:54.451Z,17.20
2023-02-06T07:41:02.405Z,15.20
2023-02-06T07:43:07.254Z,15.10
2023-02-06T07:45:11.955Z,19.15
2023-02-06T07:47:14.988Z,15.07
2023-02-06T07:49:19.452Z,19.02
2023-02-06T07:51:22.951Z,14.63
2023-02-06T07:53:26.363Z,15.85
2023-02-06T07:55:30.053Z,15.13
2023-02-06T07:57:33.114Z,16.13
2023-02-06T07:59:36.123Z,20.05
2023-02-06T08:01:39.190Z,14.45
2023-02-06T08:03:42.201Z,15.48
2023-02-06T08:05:46.841Z,16.08
2023-02-06T08:07:51.925Z,15.57
2023-02-06T08:09:55.029Z,15.10
2023-02-06T08:11:58.347Z,14.65
2023-02-06T08:14:01.522Z,15.63
2023-02-06T08:16:06.496Z,15.00
2023-02-06T08:18:10.366Z,15.45
2023-02-06T08:20:13.916Z,13.82
2023-02-06T08:22:18.398Z,20.80
2023-02-06T08:24:21.423Z,13.93
2023-02-06T08:26:25.044Z,14.20
2023-02-06T08:28:28.159Z,16.10
2023-02-06T08:30:32.439Z,17.10
2023-02-06T08:32:36.466Z,17.35
2023-02-06T08:34:40.462Z,19.42
2023-02-06T08:36:44.267Z,23.63
2023-02-06T08:38:49.343Z,20.40
2023-02-06T08:40:52.469Z,23.83
2023-02-06T08:42:55.878Z,20.30
2023-02-06T08:44:58.907Z,13.63
2023-02-06T08:47:10.068Z,18.10
2023-02-06T08:49:15.133Z,13.85
2023-02-06T08:51:18.261Z,11.55
2023-02-06T08:53:21.257Z,13.82
2023-02-06T08:55:25.866Z,12.20
2023-02-06T08:57:29.001Z,12.35
2023-02-06T08:59:32.239Z,13.40
2023-02-06T09:01:36.700Z,12.80
2023-02-06T09:03:39.690Z,9.20
2023-02-06T09:05:42.964Z,14.45
2023-02-06T09:07:46.195Z,11.02
2023-02-06T09:09:49.407Z,10.55
2023-02-06T09:11:55.436Z,11.10
2023-02-06T09:13:59.689Z,13.15
2023-02-06T09:16:03.202Z,9.45
2023-02-06T09:18:06.677Z,9.38
2023-02-06T09:20:10.672Z,8.65
2023-02-06T09:22:14.105Z,11.23
2023-02-06T09:24:17.148Z,9.35
2023-02-06T09:26:23.904Z,9.10
2023-02-06T09:28:28.779Z,10.82
2023-02-06T09:30:32.227Z,9.70
2023-02-06T09:32:35.307Z,11.18
2023-02-06T09:34:38.408Z,11.80
2023-02-06T09:36:41.756Z,11.60
2023-02-06T09:38:46.922Z,11.57
2023-02-06T09:40:50.051Z,9.55
2023-02-06T09:42:54.044Z,14.55
2023-02-06T09:45:04.577Z,13.23
2023-02-06T09:47:16.273Z,11.90
2023-02-06T09:49:22.276Z,10.65
2023-02-06T09:51:40.448Z,13.05
2023-02-06T09:53:49.004Z,13.23
2023-02-06T09:55:56.895Z,13.32
2023-02-06T09:58:05.964Z,13.02
2023-02-06T10:00:17.188Z,11.60
2023-02-06T10:02:30.841Z,13.40
2023-02-06T10:04:42.036Z,10.13
2023-02-06T10:06:51.389Z,13.18
2023-02-06T10:09:01.007Z,14.20
2023-02-06T10:11:10.632Z,12.52
2023-02-06T10:13:17.292Z,14.30
2023-02-06T10:15:28.985Z,13.30
2023-02-06T10:17:35.023Z,13.20
2023-02-06T10:19:43.645Z,11.18
2023-02-06T10:21:51.663Z,13.65
2023-02-06T10:23:59.791Z,12.45
2023-02-06T10:26:08.051Z,11.82
2023-02-06T10:28:21.985Z,12.85
2023-02-06T10:30:37.084Z,9.75
2023-02-06T10:32:46.554Z,10.32
2023-02-06T10:35:01.129Z,11.70
2023-02-06T10:37:17.626Z,12.23
2023-02-06T10:39:42.431Z,13.18
2023-02-06T10:41:51.798Z,14.57
2023-02-06T10:43:57.178Z,10.85
2023-02-06T10:46:13.998Z,14.13
2023-02-06T10:48:23.996Z,10.77
2023-02-06T10:50:28.952Z,13.00
2023-02-06T10:52:34.721Z,10.20
2023-02-06T10:54:40.099Z,12.05
2023-02-06T10:56:45.109Z,16.70
2023-02-06T10:58:52.433Z,14.25
2023-02-06T11:00:56.437Z,11.95
2023-02-06T11:03:07.685Z,14.02
2023-02-06T11:05:14.223Z,12.85
2023-02-06T11:07:20.742Z,11.02
2023-02-06T11:09:24.358Z,10.90
2023-02-06T11:11:30.616Z,10.85
2023-02-06T11:13:36.492Z,10.70
2023-02-06T11:15:44.555Z,12.85
2023-02-06T11:17:48.110Z,9.48
2023-02-06T11:19:53.454Z,8.57
2023-02-06T11:21:58.141Z,17.95
2023-02-06T11:24:09.921Z,20.15
2023-02-06T11:26:15.098Z,10.43
2023-02-06T11:28:21.196Z,10.90
2023-02-06T11:30:32.096Z,12.98
2023-02-06T11:32:37.745Z,14.23
2023-02-06T11:34:54.708Z,10.55
2023-02-06T11:36:59.747Z,12.38
2023-02-06T11:39:05.427Z,19.73
2023-02-06T11:41:18.862Z,11.50
2023-02-06T11:43:23.357Z,11.48
2023-02-06T11:45:29.811Z,8.90
2023-02-06T11:47:37.191Z,18.65
2023-02-06T11:49:40.711Z,27.73
2023-02-06T11:51:51.387Z,42.40
2023-02-06T11:53:58.854Z,26.17
2023-02-06T11:56:11.941Z,9.80
2023-02-06T11:58:26.167Z,9.25
2023-02-06T12:00:30.393Z,9.63
2023-02-06T12:02:35.229Z,16.40
2023-02-06T12:04:41.010Z,23.38
2023-02-06T12:06:44.411Z,12.30
2023-02-06T12:08:50.976Z,7.95
2023-02-06T12:10:57.167Z,9.13
2023-02-06T12:13:05.882Z,7.00
2023-02-06T12:15:36.202Z,8.05
2023-02-06T12:17:38.665Z,8.88
2023-02-06T12:19:46.498Z,7.75
2023-02-06T12:21:52.243Z,7.63
2023-02-06T12:23:59.692Z,9.00
2023-02-06T12:26:06.525Z,7.20
2023-02-06T12:28:13.975Z,8.48
2023-02-06T12:30:28.365Z,6.00
2023-02-06T12:32:34.232Z,6.53
2023-02-06T12:34:49.640Z,7.45
2023-02-06T12:37:00.475Z,8.52
2023-02-06T12:39:08.210Z,7.13
2023-02-06T12:41:24.145Z,7.00
2023-02-06T12:43:28.662Z,7.65
2023-02-06T12:45:40.204Z,6.10
2023-02-06T12:47:47.209Z,5.38
2023-02-06T12:50:01.998Z,7.32
2023-02-06T12:52:10.839Z,9.40
2023-02-06T12:54:18.254Z,8.85
2023-02-06T12:56:29.456Z,5.97
2023-02-06T12:58:39.950Z,5.85
2023-02-06T13:00:53.572Z,5.85
2023-02-06T13:03:07.708Z,6.78
2023-02-06T13:05:22.892Z,5.30
2023-02-06T13:07:28.327Z,7.95
2023-02-06T13:09:36.325Z,6.20
2023-02-06T13:11:40.911Z,5.72
2023-02-06T13:13:44.022Z,5.32
2023-02-06T13:15:54.838Z,5.95
2023-02-06T13:17:58.043Z,14.85
2023-02-06T13:20:03.308Z,5.28
2023-02-06T13:22:40.308Z,5.10
2023-02-06T13:24:46.039Z,5.53
2023-02-06T13:27:19.213Z,5.53
2023-02-06T13:29:26.660Z,5.53
2023-02-06T13:31:31.912Z,7.90
2023-02-06T13:33:41.112Z,5.60
2023-02-06T13:35:57.368Z,6.07
2023-02-06T13:38:28.460Z,5.25
2023-02-06T13:40:35.333Z,4.93
2023-02-06T13:42:42.687Z,4.93
2023-02-06T13:44:46.072Z,6.85
2023-02-06T13:47:29.769Z,8.25
2023-02-06T13:49:44.900Z,5.68
2023-02-06T13:51:50.340Z,5.30
2023-02-06T13:54:13.505Z,5.65
2023-02-06T13:56:39.241Z,5.10
2023-02-06T13:58:47.612Z,7.00
2023-02-06T14:00:52.617Z,8.02
2023-02-06T14:02:57.412Z,4.97
2023-02-06T14:05:01.404Z,3.72
2023-02-06T14:07:17.782Z,5.40
2023-02-06T14:09:48.895Z,5.50
2023-02-06T14:12:18.426Z,3.80
2023-02-06T14:14:32.868Z,5.65
2023-02-06T14:16:44.291Z,7.20
2023-02-06T14:18:51.284Z,6.22
2023-02-06T14:21:02.197Z,4.65
2023-02-06T14:23:12.656Z,5.30
2023-02-06T14:25:32.444Z,4.15
2023-02-06T14:27:46.260Z,5.20
2023-02-06T14:29:55.606Z,5.45
2023-02-06T14:32:26.113Z,5.82
2023-02-06T14:34:37.950Z,5.50
2023-02-06T14:36:51.093Z,6.60
2023-02-06T14:39:20.313Z,4.80
2023-02-06T14:41:23.949Z,4.43
2023-02-06T14:43:31.558Z,4.57
2023-02-06T14:45:42.151Z,4.72
2023-02-06T14:47:45.810Z,5.20
2023-02-06T14:49:49.373Z,5.68
2023-02-06T14:51:53.042Z,6.68
2023-02-06T14:53:58.233Z,7.07
2023-02-06T14:56:10.590Z,4.47
2023-02-06T14:58:20.557Z,4.90
2023-02-06T15:00:26.161Z,7.20
2023-02-06T15:02:33.567Z,4.25
2023-02-06T15:04:46.168Z,5.50
2023-02-06T15:06:53.019Z,4.25
2023-02-06T15:08:56.388Z,4.78
2023-02-06T15:11:01.018Z,5.68
2023-02-06T15:13:04.405Z,5.65
2023-02-06T15:15:17.455Z,4.95
2023-02-06T15:17:23.354Z,5.07
2023-02-06T15:19:28.333Z,3.85
2023-02-06T15:21:31.408Z,5.20
2023-02-06T15:23:44.520Z,4.50
2023-02-06T15:26:00.402Z,3.63
2023-02-06T15:28:07.134Z,3.00
2023-02-06T15:30:20.884Z,6.18
2023-02-06T15:32:30.802Z,3.42
2023-02-06T15:34:34.108Z,5.88
2023-02-06T15:36:39.508Z,3.95
2023-02-06T15:38:43.393Z,3.22
2023-02-06T15:40:48.058Z,6.00
2023-02-06T15:42:51.697Z,5.85
2023-02-06T15:44:54.837Z,10.48
2023-02-06T15:46:58.694Z,10.27
2023-02-06T15:49:03.607Z,4.97
2023-02-06T15:51:20.289Z,5.75
2023-02-06T15:53:31.249Z,6.43
2023-02-06T15:55:36.081Z,2.70
2023-02-06T15:57:41.295Z,3.55
2023-02-06T15:59:44.573Z,2.80
2023-02-06T16:01:48.523Z,3.65
2023-02-06T16:03:54.865Z,4.93
2023-02-06T16:05:59.923Z,3.60
2023-02-06T16:08:03.968Z,2.80
2023-02-06T16:10:22.111Z,3.28
2023-02-06T16:12:25.347Z,2.95
2023-02-06T16:14:35.451Z,4.00
2023-02-06T16:16:38.773Z,2.55
2023-02-06T16:18:41.960Z,2.35
2023-02-06T16:20:46.774Z,3.35
2023-02-06T16:22:51.391Z,4.18
2023-02-06T16:24:56.429Z,3.40
2023-02-06T16:27:00.185Z,2.47
2023-02-06T16:29:06.256Z,5.18
2023-02-06T16:31:12.498Z,7.68
2023-02-06T16:33:23.424Z,7.13
2023-02-06T16:35:27.218Z,3.95
2023-02-06T16:37:31.817Z,2.95
2023-02-06T16:39:36.232Z,3.08
2023-02-06T16:41:40.626Z,3.00
2023-02-06T16:43:43.709Z,10.70
2023-02-06T16:45:47.924Z,4.20
2023-02-06T16:47:51.366Z,7.30
2023-02-06T16:49:54.344Z,10.85
2023-02-06T16:51:57.569Z,12.35
2023-02-06T16:54:00.607Z,5.65
2023-02-06T16:56:05.589Z,5.55
2023-02-06T16:58:12.335Z,8.48
2023-02-06T17:00:20.912Z,11.02
2023-02-06T17:02:24.096Z,8.63
2023-02-06T17:04:27.361Z,8.32
2023-02-06T17:06:31.373Z,4.80
2023-02-06T17:08:40.424Z,13.50
2023-02-06T17:10:43.578Z,9.85
2023-02-06T17:12:48.633Z,5.85
2023-02-06T17:14:51.966Z,7.45
2023-02-06T17:16:55.961Z,5.50
2023-02-06T17:18:59.107Z,6.50
2023-02-06T17:21:02.231Z,5.22
2023-02-06T17:23:05.986Z,4.30
2023-02-06T17:25:09.592Z,13.13
2023-02-06T17:27:15.419Z,13.98
2023-02-06T17:29:20.360Z,11.05
2023-02-06T17:31:23.929Z,6.00
2023-02-06T17:33:27.261Z,6.10
2023-02-06T17:35:30.425Z,5.10
2023-02-06T17:37:33.784Z,5.53
2023-02-06T17:39:36.987Z,7.28
2023-02-06T17:41:40.261Z,7.18
2023-02-06T17:43:43.312Z,7.40
2023-02-06T17:45:48.176Z,11.38
2023-02-06T17:47:51.508Z,8.90
2023-02-06T17:49:54.915Z,7.40
2023-02-06T17:51:57.999Z,14.50
2023-02-06T17:54:01.056Z,11.13
2023-02-06T17:56:06.246Z,11.30
2023-02-06T17:58:09.781Z,10.63
2023-02-06T18:00:16.588Z,7.88
2023-02-06T18:02:21.385Z,7.25
2023-02-06T18:04:24.741Z,7.13
2023-02-06T18:06:27.945Z,6.70
2023-02-06T18:08:31.091Z,5.35
2023-02-06T18:10:34.284Z,5.40
2023-02-06T18:12:37.627Z,6.05
2023-02-06T18:14:40.954Z,6.90
2023-02-06T18:16:45.541Z,8.20
2023-02-06T18:18:50.676Z,6.38
2023-02-06T18:20:53.880Z,7.85
2023-02-06T18:22:57.062Z,9.10
2023-02-06T18:25:03.062Z,8.60
2023-02-06T18:27:06.893Z,9.23
2023-02-06T18:29:10.152Z,8.60
2023-02-06T18:31:22.958Z,6.68
2023-02-06T18:33:26.024Z,7.38
2023-02-06T18:35:30.632Z,8.73
2023-02-06T18:37:35.199Z,7.10
2023-02-06T18:39:38.716Z,8.75
2023-02-06T18:41:59.438Z,9.57
2023-02-06T18:44:04.870Z,7.25
2023-02-06T18:46:08.235Z,11.60
2023-02-06T18:48:13.133Z,9.05
2023-02-06T18:50:16.615Z,14.15
2023-02-06T18:52:21.218Z,14.00
2023-02-06T18:54:24.255Z,11.57
2023-02-06T18:56:27.455Z,15.43
2023-02-06T18:58:30.545Z,10.45
2023-02-06T19:00:35.755Z,9.45
2023-02-06T19:02:39.187Z,10.30
2023-02-06T19:04:42.310Z,11.43
2023-02-06T19:06:46.044Z,14.13
2023-02-06T19:08:50.537Z,16.45
2023-02-06T19:10:53.939Z,9.35
2023-02-06T19:12:57.172Z,11.20
2023-02-06T19:15:00.629Z,11.88
2023-02-06T19:17:03.806Z,12.48
2023-02-06T19:19:07.733Z,11.35
2023-02-06T19:21:12.869Z,11.88
2023-02-06T19:23:15.970Z,12.15
2023-02-06T19:25:21.116Z,61.90
2023-02-06T19:27:26.133Z,27.23
2023-02-06T19:29:35.516Z,32.53
2023-02-06T19:31:40.630Z,12.15
2023-02-06T19:33:43.960Z,9.60
2023-02-06T19:35:47.403Z,11.88
2023-02-06T19:37:51.848Z,20.10
2023-02-06T19:39:55.123Z,17.80
2023-02-06T19:42:00.121Z,11.85
2023-02-06T19:44:05.129Z,10.77
2023-02-06T19:46:11.890Z,11.85
2023-02-06T19:48:15.134Z,15.85
2023-02-06T19:50:18.349Z,16.75
2023-02-06T19:52:21.718Z,13.50
2023-02-06T19:54:24.814Z,11.50
2023-02-06T19:56:30.932Z,8.95
2023-02-06T19:58:35.339Z,14.13
2023-02-06T20:00:38.841Z,9.80
2023-02-06T20:02:42.030Z,11.10
2023-02-06T20:04:46.238Z,10.25
2023-02-06T20:06:51.240Z,9.82
2023-02-06T20:08:54.743Z,10.10
2023-02-06T20:10:58.672Z,21.02
2023-02-06T20:13:02.264Z,10.35
2023-02-06T20:15:07.771Z,11.50
2023-02-06T20:17:11.683Z,8.95
2023-02-06T20:19:18.451Z,11.13
2023-02-06T20:21:24.199Z,10.43
2023-02-06T20:23:27.824Z,10.63
2023-02-06T20:25:31.281Z,8.90
2023-02-06T20:27:34.314Z,12.00
2023-02-06T20:29:39.351Z,8.10
2023-02-06T20:31:43.920Z,10.75
2023-02-06T20:33:47.598Z,8.77
2023-02-06T20:35:50.571Z,7.93
2023-02-06T20:37:53.578Z,7.70
2023-02-06T20:39:56.852Z,8.57
2023-02-06T20:42:00.123Z,7.95
2023-02-06T20:44:03.542Z,8.10
2023-02-06T20:46:07.567Z,8.63
2023-02-06T20:48:12.236Z,7.60
2023-02-06T20:50:16.637Z,8.48
2023-02-06T20:52:19.859Z,12.70
2023-02-06T20:54:24.106Z,7.90
2023-02-06T20:56:27.218Z,8.27
2023-02-06T20:58:30.699Z,10.25
2023-02-06T21:00:33.801Z,10.57
2023-02-06T21:02:38.149Z,12.88
2023-02-06T21:04:42.819Z,10.20
2023-02-06T21:06:48.095Z,9.27
2023-02-06T21:08:56.572Z,7.85
2023-02-06T21:10:59.679Z,10.85
2023-02-06T21:13:02.737Z,9.38
2023-02-06T21:15:06.482Z,6.70
2023-02-06T21:17:10.216Z,7.57
2023-02-06T21:19:15.108Z,7.85
2023-02-06T21:21:20.267Z,7.68
2023-02-06T21:23:23.654Z,7.70
2023-02-06T21:25:26.922Z,9.23
2023-02-06T21:27:30.662Z,7.20
2023-02-06T21:29:33.881Z,9.27
2023-02-06T21:31:38.848Z,9.45
2023-02-06T21:33:42.163Z,7.47
2023-02-06T21:35:50.472Z,9.23
2023-02-06T21:37:55.192Z,8.25
2023-02-06T21:39:58.536Z,8.20
2023-02-06T21:42:01.759Z,8.50
2023-02-06T21:44:05.389Z,8.00
2023-02-06T21:46:08.792Z,7.75
2023-02-06T21:48:12.086Z,9.13
2023-02-06T21:50:15.650Z,10.13
2023-02-06T21:52:18.815Z,9.02
2023-02-06T21:54:24.792Z,9.00
2023-02-06T21:56:29.188Z,9.30
2023-02-06T21:58:32.316Z,9.15
2023-02-06T22:00:35.651Z,10.93
2023-02-06T22:02:38.828Z,9.85
2023-02-06T22:04:42.054Z,8.88
2023-02-06T22:06:45.145Z,8.40
2023-02-06T22:08:52.632Z,9.52
2023-02-06T22:10:57.138Z,9.27
2023-02-06T22:13:00.187Z,9.68
2023-02-06T22:15:03.560Z,8.40
2023-02-06T22:17:07.916Z,9.75
2023-02-06T22:19:11.582Z,9.90
2023-02-06T22:21:16.294Z,9.48
2023-02-06T22:23:19.442Z,8.32
2023-02-06T22:25:22.644Z,8.85
2023-02-06T22:27:27.073Z,9.65
2023-02-06T22:29:31.060Z,8.63
2023-02-06T22:31:35.224Z,10.05
2023-02-06T22:33:38.879Z,10.18
2023-02-06T22:35:41.995Z,9.25
2023-02-06T22:37:45.034Z,11.48
2023-02-06T22:39:48.347Z,11.50
2023-02-06T22:41:51.550Z,9.65
2023-02-06T22:43:56.030Z,9.77
2023-02-06T22:45:59.193Z,9.60
2023-02-06T22:48:02.313Z,8.75
2023-02-06T22:50:05.618Z,13.55
2023-02-06T22:52:28.649Z,9.35
2023-02-06T22:54:31.899Z,8.57
2023-02-06T22:56:41.204Z,8.02
2023-02-06T22:58:44.466Z,8.85
2023-02-06T23:00:48.907Z,7.10
2023-02-06T23:02:52.054Z,7.70
2023-02-06T23:04:55.035Z,6.45
2023-02-06T23:06:58.260Z,5.72
2023-02-06T23:09:02.673Z,5.95
2023-02-06T23:11:06.128Z,7.00
2023-02-06T23:13:09.140Z,7.47
2023-02-06T23:15:12.222Z,7.55
2023-02-06T23:17:16.593Z,6.93
2023-02-06T23:19:20.137Z,8.45
2023-02-06T23:21:24.277Z,6.93
2023-02-06T23:23:27.456Z,9.25
2023-02-06T23:25:30.904Z,8.65
2023-02-06T23:27:34.078Z,7.55
2023-02-06T23:29:37.774Z,7.10
2023-02-06T23:31:40.851Z,7.60
2023-02-06T23:33:45.559Z,10.13
2023-02-06T23:35:48.767Z,8.05
2023-02-06T23:37:51.870Z,7.43
2023-02-06T23:39:54.909Z,11.18
2023-02-06T23:41:58.077Z,13.73
2023-02-06T23:44:02.516Z,10.27
2023-02-06T23:46:07.287Z,10.73
2023-02-06T23:48:10.444Z,14.15
2023-02-06T23:50:14.972Z,10.93
2023-02-06T23:52:18.063Z,10.45
2023-02-06T23:54:21.096Z,10.48
2023-02-06T23:56:26.725Z,9.52
2023-02-06T23:58:29.884Z,9.82
